Terminal Aerodrome Forecast
Issued by NWS Albany, NY

Home | Current Version | Previous Version | Text Only | Print | Product List | Glossary On
Versions: 1 2 3 4 5 6 7 8 9 10 11 12 13 14 15 16 17 18 19 20
453
FTUS41 KALY 261135
TAFGFL
TAF
KGFL 261135Z 2612/2712 VRB04KT P6SM BKN090
     FM261700 VRB03KT 6SM BR VCSH OVC050
      TEMPO 2617/2620 6SM -FZRA OVC020
     FM262000 18005KT 6SM -RA OVC020
     FM270200 VRB03KT P6SM VCSH OVC008 PROB30 2702/2704 4SM -RA
      OVC003
     FM270400 VRB03KT 6SM -RA OVC008=

USA.gov is the U.S. government's official web portal to all federal, state and local government web resources and services.